createdAt,value
2022-09-16T00:02:54.855Z,23.40
2022-09-16T00:07:59.704Z,23.40
2022-09-16T00:13:03.618Z,23.40
2022-09-16T00:18:07.323Z,23.50
2022-09-16T00:23:12.293Z,23.50
2022-09-16T00:28:16.035Z,23.40
2022-09-16T00:33:21.182Z,23.40
2022-09-16T00:38:26.250Z,23.40
2022-09-16T00:43:30.036Z,23.40
2022-09-16T00:48:35.537Z,23.40
2022-09-16T00:53:46.824Z,23.40
2022-09-16T00:58:56.259Z,23.40
2022-09-16T01:04:06.711Z,23.40
2022-09-16T01:09:11.592Z,23.40
2022-09-16T01:14:34.583Z,23.40
2022-09-16T01:20:06.955Z,23.40
2022-09-16T01:25:29.463Z,23.40
2022-09-16T01:31:01.858Z,23.40
2022-09-16T01:36:36.912Z,23.40
2022-09-16T01:42:01.604Z,23.40
2022-09-16T01:47:12.857Z,23.40
2022-09-16T01:52:30.269Z,23.40
2022-09-16T01:57:38.016Z,23.40
2022-09-16T02:02:45.845Z,23.40
2022-09-16T02:07:55.538Z,23.40
2022-09-16T02:13:05.292Z,23.40
2022-09-16T02:18:14.028Z,23.40
2022-09-16T02:23:24.967Z,23.50
2022-09-16T02:28:34.089Z,23.40
2022-09-16T02:33:45.709Z,23.40
2022-09-16T02:38:54.895Z,23.40
2022-09-16T02:43:58.569Z,23.40
2022-09-16T02:49:14.065Z,23.40
2022-09-16T02:54:28.429Z,23.40
2022-09-16T02:59:32.421Z,23.40
2022-09-16T03:04:37.518Z,23.40
2022-09-16T03:09:46.765Z,23.40
2022-09-16T03:15:26.615Z,23.40
2022-09-16T03:20:47.820Z,23.40
2022-09-16T03:26:00.393Z,23.40
2022-09-16T03:31:10.775Z,23.40
2022-09-16T03:36:20.692Z,23.40
2022-09-16T03:41:24.846Z,23.40
2022-09-16T03:46:29.516Z,23.40
2022-09-16T03:51:34.512Z,23.40
2022-09-16T03:56:38.268Z,23.40
2022-09-16T04:01:41.908Z,23.40
2022-09-16T04:06:46.880Z,23.40
2022-09-16T04:11:50.576Z,23.40
2022-09-16T04:16:55.609Z,23.40
2022-09-16T04:22:01.144Z,23.40
2022-09-16T04:27:05.239Z,23.30
2022-09-16T04:32:08.852Z,23.40
2022-09-16T04:37:13.828Z,23.40
2022-09-16T04:42:17.499Z,23.40
2022-09-16T04:47:20.968Z,23.40
2022-09-16T04:52:26.118Z,23.40
2022-09-16T04:57:32.914Z,23.40
2022-09-16T05:02:36.492Z,23.40
2022-09-16T05:07:41.503Z,23.40
2022-09-16T05:12:49.303Z,23.40
2022-09-16T05:17:53.413Z,23.40
2022-09-16T05:22:58.272Z,23.30
2022-09-16T05:28:02.058Z,23.40
2022-09-16T05:33:05.679Z,23.30
2022-09-16T05:38:10.672Z,23.30
2022-09-16T05:43:14.269Z,23.30
2022-09-16T05:48:17.833Z,23.30
2022-09-16T05:53:22.999Z,23.30
2022-09-16T05:58:28.513Z,23.30
2022-09-16T06:03:32.071Z,23.30
2022-09-16T06:08:38.011Z,23.30
2022-09-16T06:13:42.611Z,23.30
2022-09-16T06:18:46.106Z,23.30
2022-09-16T06:23:51.046Z,23.30
2022-09-16T06:28:55.983Z,23.30
2022-09-16T06:34:00.108Z,23.30
2022-09-16T06:39:05.864Z,23.30
2022-09-16T06:44:09.789Z,23.30
2022-09-16T06:49:13.456Z,23.30
2022-09-16T06:54:18.881Z,23.30
2022-09-16T06:59:22.418Z,23.30
2022-09-16T07:04:26.471Z,23.30
2022-09-16T07:09:32.583Z,23.20
2022-09-16T07:14:36.515Z,23.20
2022-09-16T07:19:42.358Z,23.20
2022-09-16T07:24:47.278Z,23.20
2022-09-16T07:29:50.957Z,23.20
2022-09-16T07:34:55.502Z,23.20
2022-09-16T07:40:00.480Z,23.20
2022-09-16T07:45:04.743Z,23.20
2022-09-16T07:50:10.313Z,23.20
2022-09-16T07:55:17.545Z,23.20
2022-09-16T08:00:21.688Z,23.20
2022-09-16T08:05:25.271Z,23.20
2022-09-16T08:10:32.447Z,23.10
2022-09-16T08:15:36.479Z,23.00
2022-09-16T08:20:40.151Z,23.00
2022-09-16T08:25:45.587Z,23.00
2022-09-16T08:30:52.669Z,22.90
2022-09-16T08:36:02.213Z,22.90
2022-09-16T08:41:36.824Z,22.90
2022-09-16T08:46:53.082Z,22.90
2022-09-16T08:51:57.979Z,22.80
2022-09-16T08:57:07.051Z,22.90
2022-09-16T09:02:38.908Z,22.80
2022-09-16T09:08:02.331Z,22.80
2022-09-16T09:13:33.189Z,22.80
2022-09-16T09:18:49.402Z,22.80
2022-09-16T09:24:18.164Z,22.70
2022-09-16T09:29:52.505Z,22.70
2022-09-16T09:35:17.876Z,22.70
2022-09-16T09:40:30.771Z,22.60
2022-09-16T09:45:41.508Z,22.60
2022-09-16T09:50:48.409Z,22.60
2022-09-16T09:56:01.905Z,22.60
2022-09-16T10:01:07.614Z,22.60
2022-09-16T10:06:12.988Z,22.60
2022-09-16T10:11:21.333Z,22.60
2022-09-16T10:16:34.615Z,22.90
2022-09-16T10:21:46.360Z,23.10
2022-09-16T10:26:50.076Z,22.90
2022-09-16T10:31:55.987Z,22.80
2022-09-16T10:37:06.917Z,22.80
2022-09-16T10:42:21.217Z,22.70
2022-09-16T10:47:29.871Z,22.70
2022-09-16T10:52:43.571Z,22.60
2022-09-16T10:57:48.143Z,22.60
2022-09-16T11:03:19.837Z,22.70
2022-09-16T11:08:42.999Z,22.50
2022-09-16T11:13:57.368Z,22.50
2022-09-16T11:19:15.000Z,22.40
2022-09-16T11:25:05.610Z,22.30
2022-09-16T11:30:14.752Z,22.50
2022-09-16T11:36:11.862Z,22.60
2022-09-16T11:41:25.635Z,22.70
2022-09-16T11:46:40.602Z,22.70
2022-09-16T11:52:06.987Z,22.70
2022-09-16T11:57:16.565Z,22.70
2022-09-16T12:02:27.661Z,22.70
2022-09-16T12:07:39.529Z,22.80
2022-09-16T12:12:51.103Z,22.70
2022-09-16T12:18:00.279Z,22.70
2022-09-16T12:23:13.649Z,22.60
2022-09-16T12:28:26.163Z,22.60
2022-09-16T12:33:36.139Z,22.60
2022-09-16T12:38:41.439Z,22.60
2022-09-16T12:44:38.157Z,22.50
2022-09-16T12:50:27.264Z,22.50
2022-09-16T12:56:01.042Z,22.40
2022-09-16T13:01:20.309Z,22.50
2022-09-16T13:06:28.415Z,22.50
2022-09-16T13:17:00.669Z,22.50
2022-09-16T13:22:23.658Z,22.50
2022-09-16T13:27:36.373Z,22.50
2022-09-16T13:32:44.243Z,22.50
2022-09-16T13:37:49.104Z,22.50
2022-09-16T13:43:14.178Z,22.50
2022-09-16T13:48:21.399Z,22.50
2022-09-16T13:53:31.213Z,22.50
2022-09-16T13:58:45.087Z,22.50
2022-09-16T14:03:58.137Z,22.50
2022-09-16T14:09:27.012Z,22.50
2022-09-16T14:14:46.806Z,22.50
2022-09-16T14:19:57.463Z,22.40
2022-09-16T14:25:07.209Z,22.40
2022-09-16T14:30:20.894Z,22.40
2022-09-16T14:35:27.196Z,22.40
2022-09-16T14:40:31.523Z,22.40
2022-09-16T14:45:38.770Z,22.30
2022-09-16T14:50:47.477Z,22.40
2022-09-16T14:55:51.599Z,22.40
2022-09-16T15:01:02.172Z,22.40
2022-09-16T15:06:12.970Z,22.40
2022-09-16T15:11:43.612Z,22.40
2022-09-16T15:16:49.594Z,22.50
2022-09-16T15:21:54.267Z,22.50
2022-09-16T15:26:58.344Z,22.50
2022-09-16T15:32:19.548Z,22.40
2022-09-16T15:37:35.675Z,22.40
2022-09-16T15:42:39.665Z,22.40
2022-09-16T15:47:58.660Z,22.40
2022-09-16T15:53:08.685Z,22.30
2022-09-16T15:58:22.985Z,22.30
2022-09-16T16:03:33.082Z,22.30
2022-09-16T16:08:45.801Z,22.40
2022-09-16T16:13:51.370Z,22.40
2022-09-16T16:18:57.374Z,22.40
2022-09-16T16:24:02.126Z,22.40
2022-09-16T16:29:05.882Z,22.50
2022-09-16T16:34:10.858Z,22.40
2022-09-16T16:39:14.413Z,22.40
2022-09-16T16:44:18.038Z,22.40
2022-09-16T16:49:23.700Z,22.40
2022-09-16T16:54:29.002Z,22.30
2022-09-16T16:59:32.675Z,22.40
2022-09-16T17:04:37.829Z,22.40
2022-09-16T17:09:41.496Z,22.60
2022-09-16T17:14:44.995Z,22.60
2022-09-16T17:19:49.870Z,22.60
2022-09-16T17:24:53.376Z,22.50
2022-09-16T17:29:56.969Z,22.40
2022-09-16T17:35:01.878Z,22.30
2022-09-16T17:40:07.320Z,22.30
2022-09-16T17:45:12.393Z,22.40
2022-09-16T17:50:22.715Z,22.40
2022-09-16T17:55:26.670Z,22.40
2022-09-16T18:00:30.175Z,22.40
2022-09-16T18:05:37.757Z,22.40
2022-09-16T18:10:41.385Z,22.40
2022-09-16T18:15:44.986Z,22.50
2022-09-16T18:20:55.271Z,22.60
2022-09-16T18:25:59.323Z,22.60
2022-09-16T18:31:04.771Z,22.70
2022-09-16T18:36:13.795Z,22.80
2022-09-16T18:41:20.913Z,22.80
2022-09-16T18:46:27.950Z,22.80
2022-09-16T18:51:36.490Z,22.90
2022-09-16T18:56:42.239Z,22.90
2022-09-16T19:01:48.599Z,22.90
2022-09-16T19:06:57.009Z,22.90
2022-09-16T19:12:02.299Z,22.90
2022-09-16T19:17:06.689Z,22.90
2022-09-16T19:22:11.820Z,22.90
2022-09-16T19:27:15.436Z,22.90
2022-09-16T19:32:18.966Z,22.90
2022-09-16T19:37:24.323Z,22.90
2022-09-16T19:42:28.298Z,22.90
2022-09-16T19:47:31.822Z,22.90
2022-09-16T19:52:37.973Z,22.90
2022-09-16T19:57:41.437Z,22.90
2022-09-16T20:02:46.271Z,22.80
2022-09-16T20:07:51.058Z,22.80
2022-09-16T20:12:58.699Z,22.80
2022-09-16T20:18:02.973Z,22.80
2022-09-16T20:23:07.871Z,22.80
2022-09-16T20:28:11.440Z,22.80
2022-09-16T20:33:14.957Z,22.80
2022-09-16T20:38:20.037Z,22.70
2022-09-16T20:43:23.571Z,22.70
2022-09-16T20:48:27.106Z,22.70
2022-09-16T20:53:32.172Z,22.70
2022-09-16T20:58:36.277Z,22.70
2022-09-16T21:03:40.564Z,22.70
2022-09-16T21:08:46.506Z,22.70
2022-09-16T21:13:55.996Z,22.70
2022-09-16T21:19:03.216Z,22.70
2022-09-16T21:24:09.794Z,22.70
2022-09-16T21:29:15.802Z,22.70
2022-09-16T21:34:22.010Z,22.70
2022-09-16T21:39:28.135Z,22.70
2022-09-16T21:44:31.669Z,22.60
2022-09-16T21:49:35.200Z,22.70
2022-09-16T21:54:40.211Z,22.80
2022-09-16T21:59:43.685Z,22.80
2022-09-16T22:04:47.360Z,22.80
2022-09-16T22:09:53.202Z,22.80
2022-09-16T22:15:02.482Z,22.80
2022-09-16T22:20:08.060Z,22.70
2022-09-16T22:25:12.975Z,22.70
2022-09-16T22:30:16.685Z,22.70
2022-09-16T22:35:20.199Z,22.70
2022-09-16T22:40:25.309Z,22.70
2022-09-16T22:45:28.876Z,22.70
2022-09-16T22:50:32.441Z,22.70
2022-09-16T22:55:37.232Z,22.70
2022-09-16T23:00:40.870Z,22.70
2022-09-16T23:05:44.314Z,22.70
2022-09-16T23:10:49.171Z,22.70
2022-09-16T23:15:54.817Z,22.70
2022-09-16T23:21:00.305Z,22.70
2022-09-16T23:26:07.734Z,22.70
2022-09-16T23:31:15.858Z,22.70
2022-09-16T23:36:20.090Z,22.60
2022-09-16T23:41:27.671Z,22.60
2022-09-16T23:46:31.517Z,22.60
2022-09-16T23:51:36.563Z,22.70
2022-09-16T23:56:42.764Z,22.60
